createdAt,value
2019-05-11T00:00:42.099Z,58.10
2019-05-11T00:05:46.830Z,58.00
2019-05-11T00:10:51.270Z,58.20
2019-05-11T00:15:55.718Z,58.00
2019-05-11T00:21:00.399Z,58.10
2019-05-11T00:26:04.831Z,58.00
2019-05-11T00:31:09.604Z,57.90
2019-05-11T00:36:14.047Z,58.10
2019-05-11T00:41:18.274Z,58.20
2019-05-11T00:46:22.688Z,58.10
2019-05-11T00:51:27.189Z,57.80
2019-05-11T00:56:43.388Z,58.20
2019-05-11T01:01:48.105Z,57.80
2019-05-11T01:06:52.657Z,58.10
2019-05-11T01:11:57.397Z,57.90
2019-05-11T01:17:01.834Z,58.10
2019-05-11T01:22:06.352Z,58.10
2019-05-11T01:27:10.739Z,57.90
2019-05-11T01:32:15.447Z,57.90
2019-05-11T01:37:19.825Z,57.80
2019-05-11T01:42:24.170Z,58.00
2019-05-11T01:47:28.238Z,58.00
2019-05-11T01:52:32.436Z,58.00
2019-05-11T01:57:37.031Z,57.90
2019-05-11T02:02:41.896Z,57.70
2019-05-11T02:07:46.040Z,57.90
2019-05-11T02:12:50.139Z,57.90
2019-05-11T02:17:54.238Z,57.90
2019-05-11T02:22:58.709Z,58.50
2019-05-11T02:28:03.267Z,58.20
2019-05-11T02:33:07.302Z,58.30
2019-05-11T02:38:12.517Z,58.20
2019-05-11T02:43:16.983Z,58.00
2019-05-11T02:48:21.003Z,57.90
2019-05-11T02:53:25.576Z,58.20
2019-05-11T02:58:30.393Z,57.90
2019-05-11T03:03:34.415Z,58.00
2019-05-11T03:08:38.856Z,58.20
2019-05-11T03:13:43.881Z,58.10
2019-05-11T03:18:48.212Z,58.20
2019-05-11T03:23:52.653Z,58.90
2019-05-11T03:28:56.798Z,58.30
2019-05-11T03:34:01.175Z,58.20
2019-05-11T03:39:05.909Z,58.30
2019-05-11T03:44:10.231Z,58.50
2019-05-11T03:49:14.753Z,58.40
2019-05-11T03:54:19.538Z,58.50
2019-05-11T03:59:23.703Z,58.20
2019-05-11T04:04:28.417Z,58.20
2019-05-11T04:09:32.827Z,58.30
2019-05-11T04:14:37.803Z,58.20
2019-05-11T04:19:42.552Z,58.20
2019-05-11T04:24:46.659Z,58.30
2019-05-11T04:29:51.314Z,58.60
2019-05-11T04:34:55.426Z,58.30
2019-05-11T04:40:00.271Z,58.40
2019-05-11T04:45:05.264Z,58.60
2019-05-11T04:50:09.768Z,58.20
2019-05-11T04:55:14.340Z,58.40
2019-05-11T05:00:18.794Z,58.30
2019-05-11T05:05:23.089Z,58.40
2019-05-11T05:10:27.158Z,58.40
2019-05-11T05:15:32.105Z,58.50
2019-05-11T05:20:36.586Z,58.30
2019-05-11T05:25:40.679Z,58.40
2019-05-11T05:30:45.801Z,58.20
2019-05-11T05:35:50.538Z,58.40
2019-05-11T05:40:57.015Z,58.50
2019-05-11T05:46:00.958Z,58.40
2019-05-11T05:51:04.995Z,58.60
2019-05-11T05:56:09.147Z,58.30
2019-05-11T06:01:13.095Z,58.50
2019-05-11T06:06:17.717Z,58.60
2019-05-11T06:11:21.916Z,58.20
2019-05-11T06:16:26.126Z,58.50
2019-05-11T06:21:30.407Z,58.60
2019-05-11T06:26:34.796Z,58.80
2019-05-11T06:31:38.760Z,58.50
2019-05-11T06:36:42.699Z,58.40
2019-05-11T06:41:47.003Z,58.40
2019-05-11T06:46:51.176Z,58.60
2019-05-11T06:51:55.142Z,58.60
2019-05-11T06:56:59.198Z,58.60
2019-05-11T07:02:03.190Z,58.50
2019-05-11T07:07:07.645Z,58.60
2019-05-11T07:12:11.893Z,58.90
2019-05-11T07:17:16.320Z,58.60
2019-05-11T07:22:20.593Z,58.60
2019-05-11T07:27:24.859Z,58.70
2019-05-11T07:32:29.458Z,58.70
2019-05-11T07:37:33.823Z,58.80
2019-05-11T07:42:38.302Z,59.10
2019-05-11T07:47:42.596Z,59.20
2019-05-11T07:52:48.335Z,59.10
2019-05-11T07:57:52.915Z,59.40
2019-05-11T08:02:58.532Z,59.40
2019-05-11T08:08:03.059Z,59.50
2019-05-11T08:13:09.146Z,59.60
2019-05-11T08:18:13.075Z,59.80
2019-05-11T08:23:18.074Z,59.70
2019-05-11T08:28:22.620Z,59.60
2019-05-11T08:33:28.401Z,59.70
2019-05-11T08:38:32.540Z,59.70
2019-05-11T08:43:38.704Z,59.70
2019-05-11T08:48:42.362Z,59.70
2019-05-11T08:53:48.044Z,59.70
2019-05-11T08:58:55.184Z,59.60
2019-05-11T09:03:58.524Z,59.50
2019-05-11T09:09:02.954Z,59.70
2019-05-11T09:14:08.361Z,59.40
2019-05-11T09:19:12.901Z,58.90
2019-05-11T09:24:18.931Z,58.70
2019-05-11T09:29:23.130Z,58.90
2019-05-11T09:34:28.838Z,59.10
2019-05-11T09:39:33.026Z,59.20
2019-05-11T09:44:38.014Z,59.20
2019-05-11T09:49:47.510Z,59.40
2019-05-11T09:54:48.703Z,59.20
2019-05-11T09:59:52.891Z,59.10
2019-05-11T10:04:57.789Z,64.30
2019-05-11T10:10:02.282Z,58.10
2019-05-11T10:15:08.381Z,58.50
2019-05-11T10:20:12.854Z,58.80
2019-05-11T10:25:18.141Z,58.90
2019-05-11T10:30:22.789Z,59.60
2019-05-11T10:35:28.893Z,59.30
2019-05-11T10:40:32.707Z,60.00
2019-05-11T10:45:37.902Z,59.00
2019-05-11T10:50:42.588Z,59.40
2019-05-11T10:55:47.977Z,59.30
2019-05-11T11:00:52.696Z,59.20
2019-05-11T11:05:58.058Z,59.10
2019-05-11T11:11:02.166Z,59.30
2019-05-11T11:16:08.182Z,59.30
2019-05-11T11:21:12.514Z,59.10
2019-05-11T11:26:18.515Z,59.10
2019-05-11T11:31:22.440Z,59.20
2019-05-11T11:36:28.335Z,59.10
2019-05-11T11:41:32.453Z,59.20
2019-05-11T11:46:50.337Z,59.40
2019-05-11T11:51:42.420Z,59.00
2019-05-11T11:56:48.559Z,59.20
2019-05-11T12:01:52.416Z,59.20
2019-05-11T12:06:58.079Z,58.80
2019-05-11T12:12:02.277Z,59.10
2019-05-11T12:17:08.678Z,59.00
2019-05-11T12:22:11.942Z,58.80
2019-05-11T12:27:18.108Z,58.90
2019-05-11T12:32:31.930Z,58.70
2019-05-11T12:37:37.755Z,58.70
2019-05-11T12:42:41.774Z,58.50
2019-05-11T12:47:47.792Z,58.50
2019-05-11T12:52:51.456Z,58.50
2019-05-11T12:57:57.823Z,58.00
2019-05-11T13:03:01.301Z,58.30
2019-05-11T13:08:07.772Z,57.80
2019-05-11T13:13:12.044Z,58.00
2019-05-11T13:18:18.396Z,58.00
2019-05-11T13:23:22.000Z,57.90
2019-05-11T13:28:28.222Z,57.80
2019-05-11T13:33:31.967Z,57.80
2019-05-11T13:38:38.642Z,57.80
2019-05-11T13:43:42.776Z,57.30
2019-05-11T13:48:47.623Z,57.30
2019-05-11T13:53:51.786Z,57.60
2019-05-11T13:58:58.782Z,57.90
2019-05-11T14:04:03.018Z,57.60
2019-05-11T14:09:08.959Z,57.50
2019-05-11T14:14:12.983Z,57.40
2019-05-11T14:19:17.875Z,57.30
2019-05-11T14:24:22.792Z,57.10
2019-05-11T14:29:28.364Z,57.10
2019-05-11T14:34:32.274Z,56.90
2019-05-11T14:39:38.298Z,57.10
2019-05-11T14:44:42.198Z,57.00
2019-05-11T14:49:48.226Z,56.90
2019-05-11T14:54:51.746Z,56.80
2019-05-11T14:59:58.463Z,56.90
2019-05-11T15:05:02.390Z,56.70
2019-05-11T15:10:08.039Z,56.70
2019-05-11T15:15:12.669Z,56.70
2019-05-11T15:20:17.779Z,56.90
2019-05-11T15:25:22.227Z,56.90
2019-05-11T15:30:28.801Z,56.70
2019-05-11T15:35:32.864Z,56.80
2019-05-11T15:40:38.257Z,56.90
2019-05-11T15:45:42.710Z,56.80
2019-05-11T15:50:48.606Z,56.70
2019-05-11T15:55:52.432Z,56.60
2019-05-11T16:00:58.265Z,56.70
2019-05-11T16:06:02.732Z,56.50
2019-05-11T16:11:08.351Z,56.50
2019-05-11T16:16:12.817Z,56.30
2019-05-11T16:21:18.127Z,56.40
2019-05-11T16:26:22.646Z,56.20
2019-05-11T16:31:28.490Z,56.60
2019-05-11T16:36:32.417Z,56.10
2019-05-11T16:41:38.168Z,56.10
2019-05-11T16:46:42.615Z,56.20
2019-05-11T16:51:46.839Z,56.20
2019-05-11T16:56:51.421Z,55.80
2019-05-11T17:01:55.918Z,55.90
2019-05-11T17:07:00.316Z,55.60
2019-05-11T17:12:04.842Z,55.30
2019-05-11T17:17:08.923Z,55.00
2019-05-11T17:22:12.800Z,55.00
2019-05-11T17:27:17.070Z,54.90
2019-05-11T17:32:21.296Z,55.00
2019-05-11T17:37:28.386Z,54.70
2019-05-11T17:42:31.908Z,54.70
2019-05-11T17:47:35.931Z,54.50
2019-05-11T17:52:39.869Z,54.50
2019-05-11T17:57:43.736Z,54.30
2019-05-11T18:02:49.178Z,54.60
2019-05-11T18:07:53.830Z,54.60
2019-05-11T18:12:58.073Z,55.00
2019-05-11T18:18:02.365Z,54.60
2019-05-11T18:23:08.310Z,54.90
2019-05-11T18:28:14.374Z,54.80
2019-05-11T18:33:18.885Z,55.10
2019-05-11T18:38:23.251Z,55.20
2019-05-11T18:43:28.185Z,55.20
2019-05-11T18:48:32.455Z,55.30
2019-05-11T18:53:36.680Z,55.40
2019-05-11T18:58:41.246Z,55.40
2019-05-11T19:03:45.118Z,55.40
2019-05-11T19:08:49.148Z,55.60
2019-05-11T19:13:53.187Z,55.60
2019-05-11T19:18:58.597Z,55.40
2019-05-11T19:24:05.961Z,55.60
2019-05-11T19:29:09.159Z,56.20
2019-05-11T19:34:13.110Z,55.90
2019-05-11T19:39:19.189Z,55.80
2019-05-11T19:44:22.928Z,55.70
2019-05-11T19:49:27.874Z,56.00
2019-05-11T19:54:32.265Z,55.80
2019-05-11T19:59:38.529Z,56.00
2019-05-11T20:04:42.077Z,55.60
2019-05-11T20:09:45.944Z,56.50
2019-05-11T20:14:49.964Z,55.80
2019-05-11T20:19:54.985Z,55.50
2019-05-11T20:24:59.298Z,55.70
2019-05-11T20:30:04.044Z,55.40
2019-05-11T20:35:08.586Z,55.50
2019-05-11T20:40:12.576Z,55.10
2019-05-11T20:45:18.520Z,55.30
2019-05-11T20:50:22.926Z,55.20
2019-05-11T20:55:28.384Z,55.30
2019-05-11T21:00:32.702Z,55.40
2019-05-11T21:05:36.962Z,55.20
2019-05-11T21:10:40.827Z,55.90
2019-05-11T21:15:45.120Z,55.30
2019-05-11T21:20:49.611Z,55.40
2019-05-11T21:25:53.950Z,55.20
2019-05-11T21:30:58.571Z,55.40
2019-05-11T21:36:03.195Z,55.30
2019-05-11T21:41:08.782Z,55.30
2019-05-11T21:46:12.746Z,55.40
2019-05-11T21:51:18.237Z,55.30
2019-05-11T21:56:22.351Z,55.10
2019-05-11T22:01:28.141Z,55.00
2019-05-11T22:06:32.485Z,55.10
2019-05-11T22:11:38.108Z,54.90
2019-05-11T22:16:42.930Z,55.00
2019-05-11T22:21:49.464Z,54.80
2019-05-11T22:26:53.109Z,54.80
2019-05-11T22:31:58.130Z,54.80
2019-05-11T22:37:02.434Z,54.80
2019-05-11T22:42:07.981Z,54.70
2019-05-11T22:47:11.978Z,54.80
2019-05-11T22:52:17.970Z,54.60
2019-05-11T22:57:22.692Z,54.70
2019-05-11T23:02:28.680Z,54.90
2019-05-11T23:07:33.371Z,54.50
2019-05-11T23:12:38.312Z,54.90
2019-05-11T23:17:43.309Z,54.80
2019-05-11T23:22:56.800Z,54.70
2019-05-11T23:27:53.955Z,54.60
2019-05-11T23:32:58.735Z,54.60
2019-05-11T23:38:02.935Z,54.60
2019-05-11T23:43:08.776Z,54.70
2019-05-11T23:48:13.059Z,54.60
2019-05-11T23:53:17.815Z,54.60
2019-05-11T23:58:22.300Z,54.50
